Iver Agile — IBHW — position and weather

sailwx.info

Track history (hours):
 
Tides and Currents Weather Stations Pressure Air Temp Water Temp Dewpoint Dewpoint Depression Visibility Wind Speed Wind Dir Waves Ship Positions

Iver Agile

Last reported at 2016-Aug-28 12:33 UTC. Time now 2016-Aug-28 14:04 UTC.
Position N 36°28' W 006°60'.

Length 110 m; draft 4.9 m.

Type: Ship. MMSI: 247103700.

Date/timePositionNaut miles runAvg speedWind from/ knotsBaromVisibWave heightAir tempDewpointWater temp
2016-Aug-28 12:33N 36°28' W 006°60'  
2016-Aug-24 07:33N 35°58' W 005°35'1110.6
2016-Aug-24 06:33N 36°03' W 005°24'8 3.8
2016-Aug-24 04:32N 36°11' W 005°24'0 0.0
2016-Aug-24 02:17N 36°11' W 005°24'0 0.0
2016-Aug-24 01:05N 36°11' W 005°24'0 0.0
2016-Aug-23 22:32N 36°11' W 005°24'0 0.0
2016-Aug-23 21:29N 36°11' W 005°24'0 0.0
2016-Aug-23 20:29N 36°11' W 005°24'0 0.0
2016-Aug-23 15:17N 36°11' W 005°24'0 0.0
2016-Aug-23 09:05N 36°11' W 005°24'0 0.0
2016-Aug-23 06:05N 36°11' W 005°24'0 0.0
2016-Aug-23 05:29N 36°11' W 005°24'0 0.0
2016-Aug-23 04:29N 36°11' W 005°24'0 0.0
2016-Aug-23 03:29N 36°11' W 005°24'0 0.0
2016-Aug-23 02:29N 36°11' W 005°24'0 0.0
2016-Aug-23 01:29N 36°11' W 005°24'0 0.0
2016-Aug-23 00:29N 36°11' W 005°24'0 0.0
2016-Aug-22 23:29N 36°11' W 005°24'0 0.0
2016-Aug-22 22:23N 36°11' W 005°24'0 0.0
2016-Aug-22 21:29N 36°11' W 005°24'0 0.0
2016-Aug-22 20:17N 36°11' W 005°24'0 0.0
2016-Aug-22 19:05N 36°11' W 005°24'0 0.0
2016-Aug-22 18:17N 36°11' W 005°24'0 0.0
2016-Aug-22 17:29N 36°11' W 005°24'0 0.0
2016-Aug-22 15:29N 36°11' W 005°24'0 0.0
2016-Aug-22 14:23N 36°11' W 005°24'0 0.0
2016-Aug-22 12:17N 36°11' W 005°24'0 0.0
2016-Aug-22 11:11N 36°11' W 005°24'0 0.0
2016-Aug-22 10:32N 36°11' W 005°24'1 0.3
2016-Aug-22 06:09N 36°10' W 005°23'0 0.1
2016-Aug-22 05:30N 36°10' W 005°23'0 0.0
2016-Aug-22 04:33N 36°10' W 005°23'0 0.1
2016-Aug-22 03:33N 36°10' W 005°23'0 0.1
2016-Aug-22 02:27N 36°10' W 005°23'0 0.0
2016-Aug-21 20:21N 36°10' W 005°23'1 0.2
2016-Aug-21 15:18N 36°09' W 005°24'3 4.7
2016-Aug-21 14:33N 36°06' W 005°23'5 5.3
2016-Aug-21 13:32N 36°05' W 005°16'1 1.3
2016-Aug-21 12:33N 36°05' W 005°15'3 3.5
2016-Aug-21 11:33N 36°04' W 005°19'8 7.5
2016-Aug-21 10:33N 36°06' W 005°10'4 1.3
2016-Aug-21 07:33N 36°02' W 005°11'1414.0
2016-Aug-21 06:33N 35°58' W 005°28'1413.8
2016-Aug-21 05:34N 35°55' W 005°45'5510.1
2016-Aug-21 00:08N 36°14' W 006°48'711.4
2016-Aug-20 23:32N 36°21' W 006°48'104 2.9
2016-Aug-19 11:11N 34°41' W 007°22'  
Track history (hours):
 
Tides and Currents Weather Stations Pressure Air Temp Water Temp Dewpoint Dewpoint Depression Visibility Wind Speed Wind Dir Waves Ship Positions

Iver Agile

Last reported at 2016-Aug-28 12:33 UTC. Time now 2016-Aug-28 14:04 UTC.
Position N 36°28' W 006°60'.

Length 110 m; draft 4.9 m.

Type: Ship. MMSI: 247103700.

Date/timePositionNaut miles runAvg speedWind from/ knotsBaromVisibWave heightAir tempDewpointWater temp
2016-Aug-28 12:33N 36°28' W 006°60'  
2016-Aug-24 07:33N 35°58' W 005°35'1110.6
2016-Aug-24 06:33N 36°03' W 005°24'8 3.8
2016-Aug-24 04:32N 36°11' W 005°24'0 0.0
2016-Aug-24 02:17N 36°11' W 005°24'0 0.0
2016-Aug-24 01:05N 36°11' W 005°24'0 0.0
2016-Aug-23 22:32N 36°11' W 005°24'0 0.0
2016-Aug-23 21:29N 36°11' W 005°24'0 0.0
2016-Aug-23 20:29N 36°11' W 005°24'0 0.0
2016-Aug-23 15:17N 36°11' W 005°24'0 0.0
2016-Aug-23 09:05N 36°11' W 005°24'0 0.0
2016-Aug-23 06:05N 36°11' W 005°24'0 0.0
2016-Aug-23 05:29N 36°11' W 005°24'0 0.0
2016-Aug-23 04:29N 36°11' W 005°24'0 0.0
2016-Aug-23 03:29N 36°11' W 005°24'0 0.0
2016-Aug-23 02:29N 36°11' W 005°24'0 0.0
2016-Aug-23 01:29N 36°11' W 005°24'0 0.0
2016-Aug-23 00:29N 36°11' W 005°24'0 0.0
2016-Aug-22 23:29N 36°11' W 005°24'0 0.0
2016-Aug-22 22:23N 36°11' W 005°24'0 0.0
2016-Aug-22 21:29N 36°11' W 005°24'0 0.0
2016-Aug-22 20:17N 36°11' W 005°24'0 0.0
2016-Aug-22 19:05N 36°11' W 005°24'0 0.0
2016-Aug-22 18:17N 36°11' W 005°24'0 0.0
2016-Aug-22 17:29N 36°11' W 005°24'0 0.0
2016-Aug-22 15:29N 36°11' W 005°24'0 0.0
2016-Aug-22 14:23N 36°11' W 005°24'0 0.0
2016-Aug-22 12:17N 36°11' W 005°24'0 0.0
2016-Aug-22 11:11N 36°11' W 005°24'0 0.0
2016-Aug-22 10:32N 36°11' W 005°24'1 0.3
2016-Aug-22 06:09N 36°10' W 005°23'0 0.1
2016-Aug-22 05:30N 36°10' W 005°23'0 0.0
2016-Aug-22 04:33N 36°10' W 005°23'0 0.1
2016-Aug-22 03:33N 36°10' W 005°23'0 0.1
2016-Aug-22 02:27N 36°10' W 005°23'0 0.0
2016-Aug-21 20:21N 36°10' W 005°23'1 0.2
2016-Aug-21 15:18N 36°09' W 005°24'3 4.7
2016-Aug-21 14:33N 36°06' W 005°23'5 5.3
2016-Aug-21 13:32N 36°05' W 005°16'1 1.3
2016-Aug-21 12:33N 36°05' W 005°15'3 3.5
2016-Aug-21 11:33N 36°04' W 005°19'8 7.5
2016-Aug-21 10:33N 36°06' W 005°10'4 1.3
2016-Aug-21 07:33N 36°02' W 005°11'1414.0
2016-Aug-21 06:33N 35°58' W 005°28'1413.8
2016-Aug-21 05:34N 35°55' W 005°45'5510.1
2016-Aug-21 00:08N 36°14' W 006°48'711.4
2016-Aug-20 23:32N 36°21' W 006°48'104 2.9
2016-Aug-19 11:11N 34°41' W 007°22'  

Dump ship's entire track history